createdAt,value
2022-11-20T07:35:27.550Z,58.10
2022-11-20T07:37:55.345Z,58.20
2022-11-20T07:40:23.113Z,58.20
2022-11-20T07:42:51.800Z,58.20
2022-11-20T07:45:20.049Z,58.20
2022-11-20T07:47:47.842Z,58.20
2022-11-20T07:50:16.353Z,58.20
2022-11-20T07:52:45.983Z,58.10
2022-11-20T07:55:14.141Z,58.10
2022-11-20T07:57:41.991Z,58.10
2022-11-20T08:00:12.349Z,58.10
2022-11-20T08:02:41.128Z,58.00
2022-11-20T08:05:10.419Z,58.80
2022-11-20T08:07:39.645Z,58.10
2022-11-20T08:10:11.070Z,58.10
2022-11-20T08:13:03.671Z,58.10
2022-11-20T08:15:32.080Z,58.10
2022-11-20T08:18:29.475Z,58.10
2022-11-20T08:20:52.539Z,58.10
2022-11-20T08:23:20.350Z,58.10
2022-11-20T08:25:52.143Z,58.10
2022-11-20T08:28:22.066Z,58.10
2022-11-20T08:30:50.826Z,58.10
2022-11-20T08:33:19.311Z,58.10
2022-11-20T08:35:47.428Z,58.10
2022-11-20T08:38:15.229Z,58.10
2022-11-20T08:41:03.006Z,58.10
2022-11-20T08:43:32.136Z,58.10
2022-11-20T08:45:59.989Z,58.10
2022-11-20T08:48:27.790Z,58.10
2022-11-20T08:50:55.571Z,58.10
2022-11-20T08:53:23.353Z,58.10
2022-11-20T08:55:51.139Z,58.10
2022-11-20T08:58:18.944Z,58.10
2022-11-20T09:00:48.108Z,58.10
2022-11-20T09:03:15.936Z,58.10
2022-11-20T09:05:44.176Z,58.10
2022-11-20T09:08:11.953Z,58.10
2022-11-20T09:10:40.685Z,58.10
2022-11-20T09:13:08.842Z,58.10
2022-11-20T09:15:36.628Z,58.10
2022-11-20T09:18:06.355Z,58.10
2022-11-20T09:20:34.201Z,58.00
2022-11-20T09:23:01.993Z,58.10
2022-11-20T09:25:29.755Z,58.00
2022-11-20T09:27:57.950Z,58.10
2022-11-20T09:30:26.436Z,58.00
2022-11-20T09:32:54.270Z,58.10
2022-11-20T09:35:23.469Z,58.00
2022-11-20T09:37:51.608Z,58.00
2022-11-20T09:40:22.609Z,58.10
2022-11-20T09:42:56.187Z,58.00
2022-11-20T09:45:30.639Z,58.00
2022-11-20T09:48:14.348Z,58.00
2022-11-20T09:50:49.800Z,58.00
2022-11-20T09:53:24.517Z,58.00
2022-11-20T09:55:53.231Z,58.00
2022-11-20T09:58:33.048Z,58.00
2022-11-20T10:01:09.667Z,58.00
2022-11-20T10:03:43.775Z,58.00
2022-11-20T10:06:18.852Z,58.00
2022-11-20T10:08:55.846Z,58.10
2022-11-20T10:11:35.083Z,58.00
2022-11-20T10:14:13.962Z,58.00
2022-11-20T10:16:48.264Z,58.00
2022-11-20T10:19:33.018Z,58.00
2022-11-20T10:22:14.060Z,58.00
2022-11-20T10:24:54.921Z,58.00
2022-11-20T10:27:37.524Z,58.00
2022-11-20T10:30:11.229Z,58.00
2022-11-20T10:32:42.241Z,58.10
2022-11-20T10:35:22.096Z,58.00
2022-11-20T10:37:57.034Z,58.00
2022-11-20T10:40:31.617Z,58.00
2022-11-20T10:43:03.603Z,58.00
2022-11-20T10:45:44.462Z,58.00
2022-11-20T10:48:18.965Z,58.00
2022-11-20T10:50:57.231Z,58.00
2022-11-20T10:53:39.367Z,58.00
2022-11-20T10:56:13.640Z,58.00
2022-11-20T10:58:50.969Z,58.00
2022-11-20T11:01:22.815Z,58.00
2022-11-20T11:03:51.887Z,58.00
2022-11-20T11:06:28.653Z,58.00
2022-11-20T11:09:00.765Z,58.00
2022-11-20T11:11:31.917Z,58.00
2022-11-20T11:14:07.555Z,58.00
2022-11-20T11:16:35.385Z,58.00
2022-11-20T11:19:07.415Z,58.00
2022-11-20T11:21:36.719Z,58.00
2022-11-20T11:24:34.899Z,58.00
2022-11-20T11:26:58.137Z,58.00
2022-11-20T11:29:27.730Z,58.00
2022-11-20T11:32:05.714Z,58.00
2022-11-20T11:34:33.540Z,58.00
2022-11-20T11:37:02.597Z,58.00
2022-11-20T11:39:33.185Z,58.00
2022-11-20T11:42:02.943Z,58.00
2022-11-20T11:44:50.789Z,58.00
2022-11-20T11:47:24.968Z,58.00
2022-11-20T11:50:04.181Z,58.00
2022-11-20T11:52:38.171Z,58.00
2022-11-20T11:55:12.009Z,58.00
2022-11-20T11:57:49.080Z,58.00
2022-11-20T12:00:18.775Z,58.00
2022-11-20T12:02:58.257Z,58.00
2022-11-20T12:05:29.532Z,58.00
2022-11-20T12:08:01.385Z,58.00
2022-11-20T12:10:43.327Z,58.00
2022-11-20T12:13:22.553Z,58.00
2022-11-20T12:15:50.966Z,58.00
2022-11-20T12:18:21.669Z,58.00
2022-11-20T12:21:03.457Z,58.00
2022-11-20T12:23:38.712Z,58.00
2022-11-20T12:26:15.940Z,58.00
2022-11-20T12:28:56.066Z,58.00
2022-11-20T12:31:49.827Z,58.00
2022-11-20T12:34:40.131Z,58.00
2022-11-20T12:37:16.937Z,58.00
2022-11-20T12:39:49.387Z,58.00
2022-11-20T12:43:02.122Z,58.00
2022-11-20T12:46:01.758Z,57.90
2022-11-20T12:48:46.527Z,58.00
2022-11-20T12:51:32.841Z,57.90
2022-11-20T12:54:19.749Z,57.90
2022-11-20T12:56:57.276Z,57.90
2022-11-20T12:59:44.315Z,57.90
2022-11-20T13:02:26.332Z,57.90
2022-11-20T13:05:18.617Z,57.90
2022-11-20T13:07:47.774Z,57.90
2022-11-20T13:10:20.774Z,57.90
2022-11-20T13:12:56.323Z,57.90
2022-11-20T13:15:38.270Z,57.90
2022-11-20T13:18:10.456Z,57.90
2022-11-20T13:20:42.787Z,57.90
2022-11-20T13:23:10.583Z,57.90
2022-11-20T13:25:40.270Z,57.90
2022-11-20T13:28:28.987Z,57.80
2022-11-20T13:30:59.631Z,57.90
2022-11-20T13:33:31.746Z,57.90
2022-11-20T13:36:02.561Z,57.80
2022-11-20T13:38:42.392Z,57.80
2022-11-20T13:41:24.357Z,57.80
2022-11-20T13:43:54.039Z,57.80
2022-11-20T13:46:25.515Z,57.80
2022-11-20T13:48:55.270Z,57.80
2022-11-20T13:51:35.168Z,57.80
2022-11-20T13:54:35.529Z,57.80
2022-11-20T13:57:18.378Z,57.80
2022-11-20T13:59:57.241Z,57.80
2022-11-20T14:02:30.390Z,57.80
2022-11-20T14:05:01.770Z,57.80
2022-11-20T14:07:37.448Z,57.80
2022-11-20T14:10:06.091Z,57.80
2022-11-20T14:12:39.290Z,57.80
2022-11-20T14:15:07.633Z,57.80
2022-11-20T14:17:39.127Z,57.70
2022-11-20T14:20:13.405Z,57.80
2022-11-20T14:22:41.284Z,57.80
2022-11-20T14:25:23.955Z,57.80
2022-11-20T14:27:55.372Z,57.80
2022-11-20T14:30:25.036Z,57.80
2022-11-20T14:32:59.115Z,57.80
2022-11-20T14:35:29.381Z,57.70
2022-11-20T14:37:57.829Z,57.70
2022-11-20T14:40:28.964Z,57.70
2022-11-20T14:42:57.454Z,57.70
2022-11-20T14:45:26.602Z,57.70
2022-11-20T14:47:58.585Z,57.70
2022-11-20T14:50:28.542Z,57.70
2022-11-20T14:52:57.976Z,57.70
2022-11-20T14:55:30.983Z,57.70
2022-11-20T14:58:00.633Z,57.70
2022-11-20T15:00:29.515Z,57.70
2022-11-20T15:02:58.862Z,57.70
2022-11-20T15:05:28.070Z,58.30
2022-11-20T15:08:08.790Z,57.70
2022-11-20T15:10:37.920Z,57.70
2022-11-20T15:13:13.155Z,57.70
2022-11-20T15:15:47.419Z,57.70
2022-11-20T15:18:18.381Z,57.70
2022-11-20T15:20:46.435Z,57.70
2022-11-20T15:23:15.268Z,57.70
2022-11-20T15:25:43.844Z,57.70
2022-11-20T15:28:18.987Z,57.60
2022-11-20T15:30:47.361Z,57.70
2022-11-20T15:33:17.245Z,57.70
2022-11-20T15:35:45.514Z,57.70
2022-11-20T15:38:13.398Z,57.70
2022-11-20T15:40:41.838Z,57.70
2022-11-20T15:43:13.437Z,57.70
2022-11-20T15:45:44.811Z,57.70
2022-11-20T15:48:16.698Z,57.70
2022-11-20T15:50:52.854Z,57.80
2022-11-20T15:53:20.749Z,57.70
2022-11-20T15:55:48.693Z,57.60
2022-11-20T15:58:17.604Z,57.70
2022-11-20T16:00:46.267Z,57.60
2022-11-20T16:03:14.660Z,57.70
2022-11-20T16:05:43.794Z,57.70
2022-11-20T16:08:12.145Z,57.60
2022-11-20T16:10:40.458Z,57.60
2022-11-20T16:13:32.115Z,57.70
2022-11-20T16:16:01.564Z,57.60
2022-11-20T16:18:29.472Z,57.60
2022-11-20T16:20:58.981Z,57.70
2022-11-20T16:23:26.771Z,57.70
2022-11-20T16:25:54.594Z,57.70
2022-11-20T16:28:22.443Z,57.60
2022-11-20T16:30:50.253Z,57.70
2022-11-20T16:33:18.977Z,57.60
2022-11-20T16:35:46.786Z,57.60
2022-11-20T16:38:15.888Z,57.60
2022-11-20T16:40:43.756Z,57.70
2022-11-20T16:43:13.092Z,57.60
2022-11-20T16:45:45.375Z,57.60
2022-11-20T16:48:17.803Z,57.70
2022-11-20T16:50:50.645Z,57.60
2022-11-20T16:53:20.802Z,57.60
2022-11-20T16:55:49.180Z,57.60
2022-11-20T16:58:17.015Z,57.60
2022-11-20T17:00:51.190Z,57.60
2022-11-20T17:03:20.829Z,57.70
2022-11-20T17:05:48.693Z,57.60
2022-11-20T17:08:16.581Z,57.70
2022-11-20T17:10:45.766Z,58.00
2022-11-20T17:13:13.627Z,57.60
2022-11-20T17:15:41.481Z,57.70
2022-11-20T17:18:09.370Z,57.60
2022-11-20T17:20:37.224Z,57.60
2022-11-20T17:23:05.097Z,57.70
2022-11-20T17:25:34.425Z,57.60
2022-11-20T17:28:03.633Z,57.70
2022-11-20T17:30:31.852Z,57.60
2022-11-20T17:32:59.771Z,57.70
2022-11-20T17:35:27.622Z,57.70
2022-11-20T17:37:55.475Z,57.70
2022-11-20T17:40:27.402Z,57.60
2022-11-20T17:42:55.865Z,57.60
2022-11-20T17:45:25.067Z,57.80
2022-11-20T17:47:52.914Z,57.60
2022-11-20T17:50:20.786Z,57.60
2022-11-20T17:52:48.715Z,57.60
2022-11-20T17:55:16.656Z,57.60
2022-11-20T17:57:52.640Z,57.60
2022-11-20T18:00:22.158Z,57.80
2022-11-20T18:02:51.428Z,57.70
2022-11-20T18:05:19.284Z,57.70
2022-11-20T18:07:47.255Z,57.60
2022-11-20T18:10:15.168Z,57.60
2022-11-20T18:12:43.915Z,57.70
2022-11-20T18:15:11.846Z,57.60
2022-11-20T18:17:39.792Z,57.70
2022-11-20T18:22:58.518Z,57.60
2022-11-20T18:25:26.366Z,57.60
2022-11-20T18:27:54.309Z,57.70
2022-11-20T18:30:22.699Z,57.60
2022-11-20T18:32:51.097Z,57.70
2022-11-20T18:35:20.332Z,58.30
2022-11-20T18:37:48.507Z,57.60
2022-11-20T18:40:16.466Z,57.70
2022-11-20T18:43:01.821Z,57.60
2022-11-20T18:45:30.316Z,57.60
2022-11-20T18:47:58.260Z,57.60
2022-11-20T18:50:27.423Z,57.70
2022-11-20T18:52:55.306Z,57.70
2022-11-20T18:55:25.850Z,57.60
2022-11-20T18:57:55.215Z,57.70
2022-11-20T19:00:23.612Z,57.70
2022-11-20T19:02:54.463Z,57.70
2022-11-20T19:05:22.284Z,57.70
2022-11-20T19:07:51.556Z,57.60
2022-11-20T19:10:20.791Z,57.60
2022-11-20T19:12:48.697Z,57.70
2022-11-20T19:15:16.614Z,57.70
2022-11-20T19:17:46.020Z,57.70
2022-11-20T19:20:14.030Z,57.70
2022-11-20T19:22:41.899Z,57.70
2022-11-20T19:25:11.304Z,57.70
2022-11-20T19:27:39.138Z,57.60
2022-11-20T19:30:07.868Z,57.60
2022-11-20T19:32:35.755Z,57.60
2022-11-20T19:35:03.883Z,57.60
2022-11-20T19:37:34.184Z,57.60
2022-11-20T19:40:04.504Z,57.60
2022-11-20T19:42:33.863Z,57.60
2022-11-20T19:45:01.744Z,57.60
2022-11-20T19:47:46.375Z,57.60
2022-11-20T19:50:17.621Z,57.60
2022-11-20T19:52:45.474Z,57.60
2022-11-20T19:55:13.330Z,57.60
2022-11-20T19:57:42.510Z,57.60
2022-11-20T20:00:12.396Z,57.60
2022-11-20T20:02:40.290Z,57.60
2022-11-20T20:05:08.799Z,57.60
2022-11-20T20:07:36.688Z,57.60
2022-11-20T20:10:04.745Z,57.60
2022-11-20T20:12:32.638Z,57.60
2022-11-20T20:15:01.816Z,57.60
2022-11-20T20:17:29.712Z,57.60
2022-11-20T20:19:57.611Z,58.30
2022-11-20T20:22:25.494Z,57.50
2022-11-20T20:24:53.354Z,57.60
2022-11-20T20:27:21.194Z,57.50
2022-11-20T20:29:49.028Z,57.50
2022-11-20T20:32:18.245Z,57.50
2022-11-20T20:34:46.065Z,57.50
2022-11-20T20:37:13.940Z,57.50
2022-11-20T20:39:41.785Z,57.60
2022-11-20T20:42:10.075Z,57.50
2022-11-20T20:44:56.016Z,57.50
2022-11-20T20:47:25.334Z,57.50
2022-11-20T20:49:53.156Z,57.60
2022-11-20T20:52:21.484Z,57.50
2022-11-20T20:54:49.298Z,57.60
2022-11-20T20:57:17.163Z,57.50
2022-11-20T20:59:45.067Z,57.50
2022-11-20T21:02:13.207Z,57.50
2022-11-20T21:04:42.484Z,57.60
2022-11-20T21:07:10.863Z,57.50
2022-11-20T21:09:39.070Z,57.50
2022-11-20T21:12:07.235Z,57.50
2022-11-20T21:14:35.640Z,57.50
2022-11-20T21:17:03.711Z,57.50
2022-11-20T21:19:32.634Z,57.50
2022-11-20T21:22:02.829Z,58.20
2022-11-20T21:24:32.900Z,57.60
2022-11-20T21:27:01.958Z,57.50
2022-11-20T21:29:31.067Z,57.60
2022-11-20T21:31:59.612Z,57.50
2022-11-20T21:34:27.673Z,57.50
2022-11-20T21:36:55.580Z,57.60
2022-11-20T21:39:24.799Z,57.60
2022-11-20T21:41:52.662Z,57.50
2022-11-20T21:44:35.846Z,57.50
2022-11-20T21:47:03.832Z,57.50
2022-11-20T21:49:31.698Z,57.50
2022-11-20T21:51:59.565Z,57.50
2022-11-20T21:54:28.862Z,57.50
2022-11-20T21:56:56.914Z,57.50
2022-11-20T21:59:24.991Z,57.50
2022-11-20T22:01:52.905Z,57.50
2022-11-20T22:04:22.809Z,57.50
2022-11-20T22:06:51.029Z,57.60
2022-11-20T22:09:18.926Z,57.50
2022-11-20T22:11:49.300Z,57.50
2022-11-20T22:14:22.326Z,57.50
2022-11-20T22:16:51.207Z,57.50
2022-11-20T22:19:20.524Z,57.50
2022-11-20T22:21:48.605Z,57.50
2022-11-20T22:24:18.384Z,57.50
2022-11-20T22:26:46.705Z,57.50
2022-11-20T22:29:18.212Z,57.50
2022-11-20T22:31:46.290Z,57.60
2022-11-20T22:34:15.239Z,57.50
2022-11-20T22:36:43.404Z,57.60
2022-11-20T22:39:11.705Z,57.50
2022-11-20T22:41:39.578Z,57.60
2022-11-20T22:44:09.305Z,57.60
2022-11-20T22:46:39.052Z,57.50
2022-11-20T22:49:09.459Z,57.60
2022-11-20T22:51:39.629Z,57.60
2022-11-20T22:54:07.860Z,57.50
2022-11-20T22:56:36.127Z,57.60
2022-11-20T22:59:04.616Z,57.60
2022-11-20T23:01:33.902Z,57.60
2022-11-20T23:04:05.137Z,57.60
2022-11-20T23:06:35.086Z,57.60
2022-11-20T23:09:03.318Z,57.60
2022-11-20T23:11:32.869Z,57.60
2022-11-20T23:14:02.089Z,57.60
2022-11-20T23:16:31.826Z,57.60
2022-11-20T23:19:01.938Z,57.60
2022-11-20T23:21:31.247Z,57.50
2022-11-20T23:24:00.521Z,57.60
2022-11-20T23:26:33.394Z,57.60
2022-11-20T23:29:02.331Z,57.60
2022-11-20T23:31:31.967Z,57.60
2022-11-20T23:34:00.559Z,57.60
2022-11-20T23:36:28.447Z,57.60
2022-11-20T23:38:57.710Z,57.60
2022-11-20T23:41:25.594Z,57.60
2022-11-20T23:43:53.781Z,57.60
2022-11-20T23:46:21.711Z,57.60
2022-11-20T23:48:49.886Z,57.60
2022-11-20T23:51:18.026Z,57.60
2022-11-20T23:53:45.989Z,57.60
2022-11-20T23:56:15.308Z,57.60
2022-11-20T23:58:43.839Z,57.60
